createdAt,value
2018-09-27T00:00:52.601Z,1.63
2018-09-27T00:03:20.768Z,1.53
2018-09-27T00:05:48.939Z,1.67
2018-09-27T00:08:16.903Z,1.80
2018-09-27T00:10:44.977Z,1.73
2018-09-27T00:13:13.244Z,1.70
2018-09-27T00:15:41.756Z,1.60
2018-09-27T00:18:09.563Z,1.47
2018-09-27T00:20:37.660Z,1.80
2018-09-27T00:23:05.944Z,1.70
2018-09-27T00:25:33.987Z,1.50
2018-09-27T00:28:01.883Z,1.57
2018-09-27T00:30:30.052Z,1.70
2018-09-27T00:32:58.220Z,1.70
2018-09-27T00:35:26.395Z,1.50
2018-09-27T00:37:54.418Z,1.53
2018-09-27T00:40:22.536Z,1.80
2018-09-27T00:42:50.241Z,1.70
2018-09-27T00:45:18.471Z,1.63
2018-09-27T00:47:46.644Z,1.73
2018-09-27T00:50:14.813Z,1.60
2018-09-27T00:52:42.999Z,1.60
2018-09-27T00:55:11.499Z,1.60
2018-09-27T00:57:39.208Z,1.60
2018-09-27T01:00:07.823Z,1.70
2018-09-27T01:02:35.537Z,1.50
2018-09-27T01:05:03.856Z,1.57
2018-09-27T01:07:32.027Z,1.50
2018-09-27T01:10:00.060Z,1.50
2018-09-27T01:12:28.170Z,1.77
2018-09-27T01:14:56.288Z,1.40
2018-09-27T01:17:24.007Z,1.63
2018-09-27T01:19:52.175Z,1.40
2018-09-27T01:22:20.347Z,1.30
2018-09-27T01:24:48.527Z,1.67
2018-09-27T01:27:16.631Z,1.67
2018-09-27T01:29:44.759Z,1.50
2018-09-27T01:32:12.889Z,1.83
2018-09-27T01:34:41.112Z,1.57
2018-09-27T01:37:09.286Z,1.43
2018-09-27T01:39:37.452Z,1.23
2018-09-27T01:42:05.631Z,2.07
2018-09-27T01:44:33.804Z,1.80
2018-09-27T01:47:02.002Z,1.60
2018-09-27T01:49:30.246Z,1.80
2018-09-27T01:51:58.428Z,1.83
2018-09-27T01:54:26.388Z,1.80
2018-09-27T01:56:54.083Z,1.87
2018-09-27T01:59:22.431Z,2.47
2018-09-27T02:01:50.595Z,2.10
2018-09-27T02:04:18.586Z,1.70
2018-09-27T02:06:46.792Z,2.50
2018-09-27T02:09:14.920Z,2.20
2018-09-27T02:11:43.083Z,2.70
2018-09-27T02:14:11.267Z,3.10
2018-09-27T02:16:39.643Z,2.40
2018-09-27T02:19:07.817Z,2.20
2018-09-27T02:21:35.983Z,2.50
2018-09-27T02:24:04.139Z,2.20
2018-09-27T02:26:32.127Z,2.20
2018-09-27T02:29:00.299Z,2.40
2018-09-27T02:31:28.568Z,2.33
2018-09-27T02:33:56.863Z,2.37
2018-09-27T02:36:25.021Z,2.10
2018-09-27T02:38:53.300Z,2.47
2018-09-27T02:41:21.567Z,2.70
2018-09-27T02:43:49.748Z,2.50
2018-09-27T02:46:17.812Z,2.80
2018-09-27T02:48:45.784Z,2.97
2018-09-27T02:51:13.952Z,2.53
2018-09-27T02:53:42.131Z,2.83
2018-09-27T02:56:10.296Z,2.83
2018-09-27T02:58:38.167Z,2.93
2018-09-27T03:01:06.344Z,2.67
2018-09-27T03:03:34.516Z,2.73
2018-09-27T03:06:02.792Z,2.77
2018-09-27T03:08:30.860Z,2.30
2018-09-27T03:10:59.031Z,2.80
2018-09-27T03:13:27.230Z,2.40
2018-09-27T03:15:55.276Z,2.10
2018-09-27T03:18:23.452Z,2.33
2018-09-27T03:20:51.531Z,2.30
2018-09-27T03:23:19.691Z,2.40
2018-09-27T03:25:47.859Z,2.83
2018-09-27T03:28:16.040Z,2.37
2018-09-27T03:30:43.740Z,2.50
2018-09-27T03:33:11.871Z,2.63
2018-09-27T03:35:40.044Z,5.60
2018-09-27T03:38:07.744Z,4.80
2018-09-27T03:40:35.969Z,3.70
2018-09-27T03:43:03.952Z,3.93
2018-09-27T03:45:32.016Z,3.23
2018-09-27T03:48:00.097Z,2.40
2018-09-27T03:50:28.259Z,2.97
2018-09-27T03:52:56.335Z,3.23
2018-09-27T03:55:24.510Z,2.80
2018-09-27T03:57:52.684Z,3.20
2018-09-27T04:00:20.852Z,3.03
2018-09-27T04:02:49.245Z,3.10
2018-09-27T04:05:17.304Z,3.47
2018-09-27T04:07:45.469Z,2.70
2018-09-27T04:10:13.539Z,3.67
2018-09-27T04:12:41.267Z,6.10
2018-09-27T04:15:09.372Z,4.70
2018-09-27T04:17:37.447Z,3.70
2018-09-27T04:20:05.828Z,3.73
2018-09-27T04:22:33.999Z,4.50
2018-09-27T04:25:02.175Z,4.33
2018-09-27T04:27:30.356Z,4.80
2018-09-27T04:29:58.096Z,3.47
2018-09-27T04:32:26.389Z,3.70
2018-09-27T04:34:54.447Z,4.10
2018-09-27T04:37:22.427Z,3.90
2018-09-27T04:39:50.608Z,3.97
2018-09-27T04:42:18.652Z,3.47
2018-09-27T04:44:46.844Z,4.07
2018-09-27T04:47:14.908Z,4.53
2018-09-27T04:49:43.084Z,3.00
2018-09-27T04:52:11.251Z,3.10
2018-09-27T04:54:39.324Z,3.53
2018-09-27T04:57:07.500Z,3.60
2018-09-27T04:59:35.568Z,3.13
2018-09-27T05:02:03.295Z,3.13
2018-09-27T05:04:31.404Z,2.93
2018-09-27T05:06:59.571Z,3.33
2018-09-27T05:09:27.780Z,2.60
2018-09-27T05:11:55.911Z,2.80
2018-09-27T05:14:23.626Z,3.20
2018-09-27T05:16:51.807Z,3.47
2018-09-27T05:19:19.823Z,3.57
2018-09-27T05:21:48.001Z,3.00
2018-09-27T05:24:16.216Z,2.70
2018-09-27T05:26:44.492Z,3.03
2018-09-27T05:29:12.624Z,3.10
2018-09-27T05:31:40.889Z,2.87
2018-09-27T05:34:09.068Z,2.73
2018-09-27T05:36:37.243Z,2.43
2018-09-27T05:39:06.700Z,2.60
2018-09-27T05:41:34.714Z,2.93
2018-09-27T05:44:02.876Z,4.27
2018-09-27T05:46:30.959Z,3.17
2018-09-27T05:48:59.351Z,3.10
2018-09-27T05:51:27.497Z,3.13
2018-09-27T05:53:55.467Z,3.00
2018-09-27T05:56:23.544Z,3.20
2018-09-27T05:58:51.707Z,2.57
2018-09-27T06:01:19.995Z,3.07
2018-09-27T06:03:48.063Z,2.80
2018-09-27T06:06:16.235Z,2.70
2018-09-27T06:08:44.403Z,2.47
2018-09-27T06:11:12.582Z,3.10
2018-09-27T06:13:40.680Z,3.30
2018-09-27T06:16:08.720Z,3.07
2018-09-27T06:18:37.171Z,2.60
2018-09-27T06:21:05.466Z,3.17
2018-09-27T06:23:33.400Z,3.73
2018-09-27T06:26:01.356Z,3.13
2018-09-27T06:28:29.479Z,2.63
2018-09-27T06:30:57.659Z,2.87
2018-09-27T06:33:25.415Z,2.80
2018-09-27T06:35:53.473Z,3.03
2018-09-27T06:38:21.653Z,2.93
2018-09-27T06:40:49.359Z,3.13
2018-09-27T06:43:17.496Z,2.40
2018-09-27T06:45:45.558Z,2.40
2018-09-27T06:48:13.604Z,2.23
2018-09-27T06:50:41.814Z,2.10
2018-09-27T06:53:09.890Z,2.43
2018-09-27T06:55:38.111Z,2.70
2018-09-27T06:58:06.329Z,2.10
2018-09-27T07:00:34.599Z,2.33
2018-09-27T07:03:02.680Z,2.37
2018-09-27T07:05:30.774Z,2.53
2018-09-27T07:07:59.251Z,2.30
2018-09-27T07:10:27.432Z,2.50
2018-09-27T07:12:55.673Z,2.30
2018-09-27T07:15:24.680Z,2.80
2018-09-27T07:17:56.013Z,2.60
2018-09-27T07:20:24.729Z,2.40
2018-09-27T07:22:52.774Z,2.33
2018-09-27T07:25:21.139Z,2.13
2018-09-27T07:27:49.106Z,1.80
2018-09-27T07:30:17.278Z,1.97
2018-09-27T07:32:45.561Z,2.33
2018-09-27T07:35:13.777Z,2.33
2018-09-27T07:37:41.665Z,3.10
2018-09-27T07:40:09.865Z,2.53
2018-09-27T07:42:38.083Z,1.90
2018-09-27T07:45:06.335Z,1.90
2018-09-27T07:47:34.191Z,2.07
2018-09-27T07:50:02.400Z,2.57
2018-09-27T07:52:30.544Z,2.50
2018-09-27T07:54:58.268Z,3.47
2018-09-27T07:57:26.180Z,3.13
2018-09-27T07:59:54.439Z,2.40
2018-09-27T08:02:22.653Z,2.43
2018-09-27T08:04:50.788Z,2.80
2018-09-27T08:07:19.062Z,2.67
2018-09-27T08:09:47.244Z,2.80
2018-09-27T08:12:15.503Z,2.20
2018-09-27T08:14:43.800Z,2.40
2018-09-27T08:17:11.909Z,2.90
2018-09-27T08:19:39.763Z,2.70
2018-09-27T08:22:07.494Z,2.90
2018-09-27T08:24:35.238Z,2.87
2018-09-27T08:27:02.960Z,2.60
2018-09-27T08:29:30.654Z,2.43
2018-09-27T08:31:58.379Z,3.03
2018-09-27T08:34:26.092Z,3.13
2018-09-27T08:36:54.231Z,3.00
2018-09-27T08:39:22.325Z,2.77
2018-09-27T08:41:50.200Z,2.60
2018-09-27T08:44:17.935Z,2.83
2018-09-27T08:46:45.658Z,3.13
2018-09-27T08:49:13.390Z,2.30
2018-09-27T08:51:41.619Z,2.70
2018-09-27T08:54:09.625Z,2.63
2018-09-27T08:56:38.419Z,2.67
2018-09-27T08:59:06.818Z,2.23
2018-09-27T09:01:34.702Z,2.50
2018-09-27T09:04:02.974Z,2.70
2018-09-27T09:06:31.123Z,2.00
2018-09-27T09:08:59.439Z,2.20
2018-09-27T09:11:29.115Z,2.47
2018-09-27T09:13:57.151Z,2.80
2018-09-27T09:16:25.322Z,2.67
2018-09-27T09:18:53.612Z,2.20
2018-09-27T09:21:21.864Z,2.00
2018-09-27T09:23:50.054Z,1.70
2018-09-27T09:26:18.273Z,2.13
2018-09-27T09:28:46.020Z,2.20
2018-09-27T09:31:13.914Z,1.93
2018-09-27T09:33:41.677Z,1.83
2018-09-27T09:36:09.398Z,1.50
2018-09-27T09:38:37.139Z,1.70
2018-09-27T09:41:04.886Z,1.80
2018-09-27T09:43:32.628Z,1.53
2018-09-27T09:46:00.840Z,2.00
2018-09-27T09:48:28.946Z,1.70
2018-09-27T09:50:57.096Z,2.20
2018-09-27T09:53:25.253Z,1.60
2018-09-27T09:55:53.440Z,1.67
2018-09-27T09:58:21.607Z,1.90
2018-09-27T10:00:49.793Z,1.87
2018-09-27T10:03:17.964Z,1.70
2018-09-27T10:05:45.826Z,1.77
2018-09-27T10:08:14.086Z,2.60
2018-09-27T10:10:42.259Z,2.80
2018-09-27T10:13:10.431Z,3.93
2018-09-27T10:15:38.721Z,2.07
2018-09-27T10:18:06.599Z,2.13
2018-09-27T10:20:34.758Z,1.90
2018-09-27T10:23:02.928Z,1.70
2018-09-27T10:25:31.098Z,2.37
2018-09-27T10:27:59.087Z,1.70
2018-09-27T10:30:27.248Z,2.57
2018-09-27T10:32:55.333Z,1.63
2018-09-27T10:35:23.613Z,1.77
2018-09-27T10:37:51.356Z,1.87
2018-09-27T10:40:19.073Z,1.80
2018-09-27T10:42:47.114Z,2.00
2018-09-27T10:45:14.851Z,1.80
2018-09-27T10:47:42.790Z,1.80
2018-09-27T10:50:10.658Z,1.57
2018-09-27T10:52:38.747Z,1.70
2018-09-27T10:55:07.125Z,1.60
2018-09-27T10:57:35.306Z,2.17
2018-09-27T11:00:03.583Z,1.40
2018-09-27T11:02:31.637Z,1.40
2018-09-27T11:04:59.921Z,1.87
2018-09-27T11:07:37.340Z,1.40
2018-09-27T11:10:12.918Z,1.67
2018-09-27T11:12:48.255Z,1.60
2018-09-27T11:15:20.646Z,1.83
2018-09-27T11:17:53.591Z,1.80
2018-09-27T11:20:33.901Z,1.20
2018-09-27T11:23:02.225Z,1.60
2018-09-27T11:25:30.379Z,1.30
2018-09-27T11:27:58.978Z,1.40
2018-09-27T11:30:31.167Z,1.50
2018-09-27T11:32:59.973Z,1.50
2018-09-27T11:35:28.010Z,1.53
2018-09-27T11:37:56.006Z,2.17
2018-09-27T11:40:24.457Z,1.50
2018-09-27T11:42:52.775Z,1.60
2018-09-27T11:45:20.863Z,1.83
2018-09-27T11:47:48.974Z,1.40
2018-09-27T11:50:16.771Z,1.67
2018-09-27T11:52:44.871Z,1.70
2018-09-27T11:55:13.106Z,2.40
2018-09-27T11:57:41.202Z,2.30
2018-09-27T12:00:09.354Z,1.70
2018-09-27T12:02:43.806Z,2.10
2018-09-27T12:05:17.580Z,2.03
2018-09-27T12:07:51.373Z,2.03
2018-09-27T12:10:25.728Z,1.80
2018-09-27T12:13:00.822Z,1.80
2018-09-27T12:15:34.981Z,1.60
2018-09-27T12:18:09.299Z,1.80
2018-09-27T12:20:43.626Z,1.60
2018-09-27T12:23:18.134Z,1.87
2018-09-27T12:25:52.419Z,2.27
2018-09-27T12:28:26.915Z,3.70
2018-09-27T12:31:03.160Z,2.00
2018-09-27T12:33:46.472Z,2.30
2018-09-27T12:36:14.694Z,2.40
2018-09-27T12:38:42.789Z,2.00
2018-09-27T12:41:10.874Z,2.03
2018-09-27T12:43:39.015Z,2.40
2018-09-27T12:46:07.720Z,1.97
2018-09-27T12:48:35.464Z,2.37
2018-09-27T12:51:03.266Z,2.67
2018-09-27T12:53:31.230Z,2.30
2018-09-27T12:56:02.160Z,1.90
2018-09-27T12:58:35.809Z,2.20
2018-09-27T13:01:07.927Z,3.33
2018-09-27T13:03:37.331Z,2.33
2018-09-27T13:06:05.534Z,1.70
2018-09-27T13:08:33.590Z,1.70
2018-09-27T13:11:01.866Z,4.67
2018-09-27T13:13:30.051Z,2.13
2018-09-27T13:15:58.159Z,4.37
2018-09-27T13:18:26.268Z,3.47
2018-09-27T13:20:53.999Z,5.33
2018-09-27T13:23:22.106Z,4.20
2018-09-27T13:28:52.791Z,4.70
2018-09-27T13:31:20.587Z,3.10
2018-09-27T13:33:48.529Z,3.30
2018-09-27T13:36:16.328Z,5.83
2018-09-27T13:38:44.266Z,5.10
2018-09-27T13:41:12.030Z,3.10
2018-09-27T13:43:39.738Z,8.03
2018-09-27T13:46:07.594Z,13.70
2018-09-27T13:48:35.406Z,5.77
2018-09-27T13:51:03.226Z,8.67
2018-09-27T13:53:30.937Z,3.20
2018-09-27T13:55:58.671Z,3.50
2018-09-27T13:58:26.390Z,5.23
2018-09-27T14:00:54.203Z,5.60
2018-09-27T14:03:21.960Z,5.77
2018-09-27T14:05:49.699Z,3.70
2018-09-27T14:08:17.479Z,3.97
2018-09-27T14:10:45.219Z,4.63
2018-09-27T14:13:12.930Z,3.30
2018-09-27T14:15:40.674Z,5.90
2018-09-27T14:18:08.613Z,3.23
2018-09-27T14:20:36.630Z,2.50
2018-09-27T14:23:04.422Z,2.90
2018-09-27T14:25:32.181Z,3.23
2018-09-27T14:27:59.895Z,2.90
2018-09-27T14:30:27.697Z,4.00
2018-09-27T14:32:55.449Z,3.47
2018-09-27T14:35:23.218Z,1.87
2018-09-27T14:37:50.970Z,4.03
2018-09-27T14:40:18.689Z,2.73
2018-09-27T14:42:46.510Z,2.40
2018-09-27T14:45:14.214Z,2.50
2018-09-27T14:47:42.074Z,2.73
2018-09-27T14:50:09.804Z,2.97
2018-09-27T14:52:37.490Z,2.53
2018-09-27T14:55:05.332Z,2.83
2018-09-27T14:57:33.003Z,2.97
2018-09-27T15:00:00.693Z,3.57
2018-09-27T15:07:46.704Z,3.30
2018-09-27T15:10:14.755Z,3.50
2018-09-27T15:12:42.797Z,3.77
2018-09-27T15:15:10.849Z,4.67
2018-09-27T15:17:39.089Z,5.13
2018-09-27T15:20:07.276Z,6.60
2018-09-27T15:22:35.355Z,9.33
2018-09-27T15:25:03.346Z,55.60
2018-09-27T15:27:31.300Z,15.40
2018-09-27T15:29:59.264Z,19.77
2018-09-27T15:32:27.185Z,14.47
2018-09-27T15:34:55.244Z,12.30
2018-09-27T15:37:23.195Z,12.47
2018-09-27T15:39:51.184Z,7.30
2018-09-27T15:42:19.144Z,5.23
2018-09-27T15:44:47.132Z,4.90
2018-09-27T15:47:15.077Z,5.77
2018-09-27T15:49:43.045Z,3.70
2018-09-27T15:52:10.981Z,3.97
2018-09-27T15:54:38.915Z,4.37
2018-09-27T15:57:06.964Z,4.00
2018-09-27T15:59:35.019Z,4.20
2018-09-27T16:02:03.072Z,4.17
2018-09-27T16:04:31.009Z,4.20
2018-09-27T16:06:58.949Z,5.60
2018-09-27T16:09:26.896Z,4.83
2018-09-27T16:11:54.860Z,4.70
2018-09-27T16:14:23.693Z,4.60
2018-09-27T16:16:51.646Z,4.13
2018-09-27T16:19:19.585Z,4.50
2018-09-27T16:21:47.603Z,4.30
2018-09-27T16:24:15.557Z,4.93
2018-09-27T16:26:43.561Z,4.83
2018-09-27T16:29:11.669Z,4.67
2018-09-27T16:31:39.649Z,5.20
2018-09-27T16:34:07.740Z,5.30
2018-09-27T16:36:35.933Z,5.40
2018-09-27T16:39:05.477Z,5.60
2018-09-27T16:41:33.538Z,4.73
2018-09-27T16:44:01.478Z,4.77
2018-09-27T16:46:29.480Z,5.20
2018-09-27T16:48:57.445Z,7.33
2018-09-27T16:51:25.421Z,10.23
2018-09-27T16:53:53.493Z,14.87
2018-09-27T16:56:21.533Z,16.27
2018-09-27T16:58:49.477Z,11.53
2018-09-27T17:01:17.416Z,9.93
2018-09-27T17:03:45.874Z,10.07
2018-09-27T17:06:13.818Z,9.20
2018-09-27T17:08:41.753Z,9.70
2018-09-27T17:11:09.809Z,10.97
2018-09-27T17:13:37.816Z,10.63
2018-09-27T17:16:05.773Z,11.67
2018-09-27T17:18:33.785Z,12.83
2018-09-27T17:21:01.752Z,14.60
2018-09-27T17:23:29.766Z,16.67
2018-09-27T17:25:57.784Z,15.47
2018-09-27T17:28:25.740Z,13.93
2018-09-27T17:30:53.699Z,13.30
2018-09-27T17:33:21.630Z,14.97
2018-09-27T17:35:49.574Z,17.30
2018-09-27T17:38:17.842Z,12.30
2018-09-27T17:40:46.615Z,13.27
2018-09-27T17:43:14.623Z,13.67
2018-09-27T17:45:42.566Z,15.03
2018-09-27T17:48:10.504Z,14.50
2018-09-27T17:50:38.478Z,12.37
2018-09-27T17:53:06.515Z,12.90
2018-09-27T17:55:34.582Z,13.27
2018-09-27T17:58:02.599Z,11.77
2018-09-27T18:00:30.572Z,10.43
2018-09-27T18:02:58.507Z,10.23
2018-09-27T18:05:26.371Z,8.97
2018-09-27T18:07:54.193Z,9.40
2018-09-27T18:10:23.498Z,11.20
2018-09-27T18:12:51.315Z,9.27
2018-09-27T18:15:19.075Z,7.63
2018-09-27T18:17:46.916Z,7.93
2018-09-27T18:20:14.671Z,8.00
2018-09-27T18:22:42.467Z,7.30
2018-09-27T18:25:10.226Z,7.77
2018-09-27T18:27:38.013Z,6.70
2018-09-27T18:30:05.843Z,6.50
2018-09-27T18:32:33.561Z,7.30
2018-09-27T18:35:01.267Z,6.93
2018-09-27T18:37:29.518Z,7.00
2018-09-27T18:39:57.263Z,7.90
2018-09-27T18:42:24.970Z,6.73
2018-09-27T18:44:52.689Z,6.83
2018-09-27T18:47:20.547Z,6.27
2018-09-27T18:49:48.274Z,5.30
2018-09-27T18:52:16.344Z,5.10
2018-09-27T18:54:44.070Z,5.30
2018-09-27T18:57:11.914Z,5.60
2018-09-27T18:59:39.666Z,5.10
2018-09-27T19:02:07.576Z,4.73
2018-09-27T19:04:35.289Z,4.40
2018-09-27T19:07:03.181Z,4.00
2018-09-27T19:09:30.938Z,4.37
2018-09-27T19:11:58.675Z,4.53
2018-09-27T19:14:26.479Z,3.80
2018-09-27T19:16:54.315Z,3.63
2018-09-27T19:19:21.950Z,4.13
2018-09-27T19:21:50.046Z,4.33
2018-09-27T19:24:17.750Z,4.93
2018-09-27T19:26:45.498Z,4.70
2018-09-27T19:29:13.546Z,4.90
2018-09-27T19:31:41.274Z,5.10
2018-09-27T19:34:10.036Z,5.57
2018-09-27T19:36:37.874Z,5.43
2018-09-27T19:39:07.482Z,5.70
2018-09-27T19:41:35.241Z,5.57
2018-09-27T19:44:02.997Z,5.33
2018-09-27T19:46:30.712Z,4.67
2018-09-27T19:48:58.457Z,4.37
2018-09-27T19:51:26.190Z,5.13
2018-09-27T19:53:53.987Z,4.70
2018-09-27T19:56:21.754Z,4.33
2018-09-27T19:58:49.457Z,4.83
2018-09-27T20:01:17.223Z,4.80
2018-09-27T20:03:44.983Z,4.00
2018-09-27T20:06:12.753Z,4.63
2018-09-27T20:08:40.563Z,4.17
2018-09-27T20:11:08.330Z,4.53
2018-09-27T20:13:36.389Z,4.40
2018-09-27T20:16:04.236Z,3.70
2018-09-27T20:18:31.946Z,3.60
2018-09-27T20:20:59.658Z,3.30
2018-09-27T20:23:27.381Z,3.97
2018-09-27T20:25:55.141Z,3.97
2018-09-27T20:28:22.893Z,3.53
2018-09-27T20:30:50.825Z,3.60
2018-09-27T20:33:18.599Z,3.60
2018-09-27T20:35:46.309Z,3.43
2018-09-27T20:38:14.034Z,3.30
2018-09-27T20:40:41.766Z,3.40
2018-09-27T20:43:09.543Z,4.43
2018-09-27T20:45:37.452Z,3.47
2018-09-27T20:48:05.347Z,3.83
2018-09-27T20:50:33.306Z,3.70
2018-09-27T20:53:01.023Z,3.30
2018-09-27T20:55:28.794Z,3.47
2018-09-27T20:57:56.610Z,3.90
2018-09-27T21:00:24.318Z,3.87
2018-09-27T21:02:52.042Z,4.80
2018-09-27T21:05:19.759Z,4.10
2018-09-27T21:07:47.450Z,4.17
2018-09-27T21:10:16.084Z,4.13
2018-09-27T21:12:43.765Z,3.53
2018-09-27T21:15:11.441Z,4.00
2018-09-27T21:17:42.142Z,3.90
2018-09-27T21:20:09.874Z,3.67
2018-09-27T21:22:37.564Z,2.87
2018-09-27T21:25:05.278Z,3.60
2018-09-27T21:27:33.010Z,3.50
2018-09-27T21:30:00.691Z,3.83
2018-09-27T21:32:28.377Z,3.47
2018-09-27T21:34:56.072Z,3.23
2018-09-27T21:37:23.790Z,3.80
2018-09-27T21:39:51.470Z,4.13
2018-09-27T21:42:19.154Z,4.60
2018-09-27T21:44:46.875Z,3.90
2018-09-27T21:47:14.584Z,3.87
2018-09-27T21:49:42.359Z,3.90
2018-09-27T21:52:10.226Z,3.57
2018-09-27T21:54:37.902Z,3.60
2018-09-27T21:57:05.627Z,3.80
2018-09-27T21:59:33.342Z,4.10
2018-09-27T22:02:01.039Z,4.07
2018-09-27T22:04:28.730Z,3.27
2018-09-27T22:06:56.405Z,4.20
2018-09-27T22:09:24.089Z,3.80
2018-09-27T22:11:51.774Z,3.70
2018-09-27T22:14:19.450Z,3.57
2018-09-27T22:16:47.541Z,4.10
2018-09-27T22:19:15.226Z,3.60
2018-09-27T22:21:42.902Z,3.67
2018-09-27T22:24:10.599Z,3.60
2018-09-27T22:26:38.286Z,4.10
2018-09-27T22:29:06.090Z,4.00
2018-09-27T22:31:33.786Z,4.00
2018-09-27T22:34:01.560Z,4.47
2018-09-27T22:36:29.256Z,4.17
2018-09-27T22:38:56.927Z,4.27
2018-09-27T22:41:24.974Z,4.43
2018-09-27T22:43:52.661Z,4.20
2018-09-27T22:46:20.365Z,4.43
2018-09-27T22:48:48.044Z,4.73
2018-09-27T22:51:15.755Z,4.63
2018-09-27T22:53:43.430Z,4.73
2018-09-27T22:56:11.118Z,5.07
2018-09-27T22:58:38.834Z,4.43
2018-09-27T23:01:06.550Z,4.40
2018-09-27T23:03:34.228Z,4.10
2018-09-27T23:06:01.933Z,4.60
2018-09-27T23:08:29.755Z,4.20
2018-09-27T23:10:57.824Z,4.37
2018-09-27T23:13:25.541Z,4.20
2018-09-27T23:15:53.297Z,4.67
2018-09-27T23:18:21.010Z,4.70
2018-09-27T23:20:48.706Z,5.07
2018-09-27T23:23:16.381Z,5.40
2018-09-27T23:25:44.109Z,4.93
2018-09-27T23:28:12.102Z,4.80
2018-09-27T23:30:39.819Z,4.83
2018-09-27T23:33:07.658Z,5.03
2018-09-27T23:35:35.365Z,5.27
2018-09-27T23:38:03.093Z,5.10
2018-09-27T23:40:30.795Z,4.60
2018-09-27T23:42:58.489Z,5.37
2018-09-27T23:45:26.524Z,4.73
2018-09-27T23:47:54.217Z,4.80
2018-09-27T23:50:22.229Z,4.90
2018-09-27T23:52:49.950Z,5.13
2018-09-27T23:55:17.653Z,4.93
2018-09-27T23:57:45.393Z,4.97
